Time,TemperatureF,DewpointF,PressureIn,WindDirection,WindDirectionDegrees,WindSpeedMPH,WindSpeedGustMPH,Humidity,HourlyPrecipIn,Conditions,Clouds,dailyrainin,SoftwareType,DateUTC
2013-06-24 00:11:00,71.6,65.8,29.98,North,0,0.0,-999.0,82,-99.99,,,0.00,Acu-Link.com,2013-06-24 04:11:00,
2013-06-24 00:26:00,71.6,66.2,29.98,North,0,0.0,-999.0,83,-99.99,,,0.00,Acu-Link.com,2013-06-24 04:26:00,
2013-06-24 00:42:00,71.6,66.5,29.98,NNW,337,0.0,-999.0,84,-99.99,,,0.00,Acu-Link.com,2013-06-24 04:42:00,
2013-06-24 00:57:00,71.6,67.2,29.98,NNW,337,2.0,-999.0,86,-99.99,,,0.00,Acu-Link.com,2013-06-24 04:57:00,
2013-06-24 01:12:00,71.6,67.2,29.97,North,0,0.0,-999.0,86,-99.99,,,0.00,Acu-Link.com,2013-06-24 05:12:00,
2013-06-24 01:27:00,71.6,67.5,29.97,North,0,0.0,-999.0,87,-99.99,,,0.00,Acu-Link.com,2013-06-24 05:27:00,
2013-06-24 01:43:00,71.6,67.5,29.97,North,0,0.0,-999.0,87,-99.99,,,0.00,Acu-Link.com,2013-06-24 05:43:00,
2013-06-24 01:58:00,71.6,67.5,29.97,North,0,0.0,-999.0,87,-99.99,,,0.00,Acu-Link.com,2013-06-24 05:58:00,
2013-06-24 02:13:00,71.6,67.9,29.98,NNE,22,0.0,-999.0,88,-99.99,,,0.00,Acu-Link.com,2013-06-24 06:13:00,
2013-06-24 02:29:00,71.6,67.9,29.97,NNE,22,0.0,-999.0,88,-99.99,,,0.00,Acu-Link.com,2013-06-24 06:29:00,
2013-06-24 02:59:00,71.6,68.2,29.97,North,0,0.0,-999.0,89,-99.99,,,0.00,Acu-Link.com,2013-06-24 06:59:00,
2013-06-24 03:15:00,71.6,68.2,29.96,NNE,22,0.0,-999.0,89,-99.99,,,0.00,Acu-Link.com,2013-06-24 07:15:00,
2013-06-24 03:30:00,71.6,68.5,29.96,North,0,0.0,-999.0,90,-99.99,,,0.00,Acu-Link.com,2013-06-24 07:30:00,
2013-06-24 03:45:00,69.8,66.7,29.97,North,0,0.0,-999.0,90,-99.99,,,0.00,Acu-Link.com,2013-06-24 07:45:00,
2013-06-24 04:00:00,69.8,66.7,29.97,NNE,22,0.0,-999.0,90,-99.99,,,0.00,Acu-Link.com,2013-06-24 08:00:00,
2013-06-24 04:16:00,69.8,66.7,29.97,NNE,22,0.0,-999.0,90,-99.99,,,0.00,Acu-Link.com,2013-06-24 08:16:00,
2013-06-24 04:31:00,71.6,68.8,29.96,North,0,0.0,-999.0,91,-99.99,,,0.00,Acu-Link.com,2013-06-24 08:31:00,
2013-06-24 04:46:00,71.6,68.8,29.96,North,0,2.0,-999.0,91,-99.99,,,0.00,Acu-Link.com,2013-06-24 08:46:00,
2013-06-24 05:32:00,71.6,68.5,29.96,East,90,1.1,-999.0,90,-99.99,,,0.00,Acu-Link.com,2013-06-24 09:32:00,
2013-06-24 05:47:00,71.6,68.8,29.97,WNW,292,1.1,-999.0,91,-99.99,,,0.00,Acu-Link.com,2013-06-24 09:47:00,
2013-06-24 06:02:00,71.6,68.8,29.97,East,90,1.1,-999.0,91,-99.99,,,0.00,Acu-Link.com,2013-06-24 10:02:00,
2013-06-24 06:17:00,71.6,68.8,29.97,NNE,22,0.0,-999.0,91,-99.99,,,0.00,Acu-Link.com,2013-06-24 10:17:00,
2013-06-24 06:33:00,71.6,68.8,29.97,NNW,337,0.0,-999.0,91,-99.99,,,0.00,Acu-Link.com,2013-06-24 10:33:00,
2013-06-24 06:48:00,73.4,70.6,29.98,East,90,3.1,-999.0,91,-99.99,,,0.00,Acu-Link.com,2013-06-24 10:48:00,
2013-06-24 07:03:00,73.4,70.6,29.98,SSE,157,1.6,-999.0,91,-99.99,,,0.00,Acu-Link.com,2013-06-24 11:03:00,
2013-06-24 07:18:00,73.4,70.3,29.98,SSE,157,1.1,-999.0,90,-99.99,,,0.00,Acu-Link.com,2013-06-24 11:18:00,
2013-06-24 07:34:00,73.4,70.0,29.98,SSW,202,0.0,-999.0,89,-99.99,,,0.00,Acu-Link.com,2013-06-24 11:34:00,
2013-06-24 07:49:00,75.2,71.4,29.99,South,180,2.7,-999.0,88,-99.99,,,0.00,Acu-Link.com,2013-06-24 11:49:00,
2013-06-24 08:20:00,78.8,73.2,29.99,SE,135,2.0,-999.0,83,-99.99,,,0.00,Acu-Link.com,2013-06-24 12:20:00,
2013-06-24 08:35:00,78.8,72.5,29.99,South,180,4.7,-999.0,81,-99.99,,,0.00,Acu-Link.com,2013-06-24 12:35:00,
2013-06-24 09:21:00,82.4,71.6,30.00,SE,135,2.7,-999.0,70,-99.99,,,0.00,Acu-Link.com,2013-06-24 13:21:00,
2013-06-24 09:36:00,80.6,70.3,30.00,South,180,4.7,-999.0,71,-99.99,,,0.00,Acu-Link.com,2013-06-24 13:36:00,
2013-06-24 09:51:00,82.4,72.0,30.00,South,180,4.7,-999.0,71,-99.99,,,0.00,Acu-Link.com,2013-06-24 13:51:00,
2013-06-24 10:22:00,82.4,71.6,30.00,SSE,157,4.7,-999.0,70,-99.99,,,0.00,Acu-Link.com,2013-06-24 14:22:00,
2013-06-24 10:37:00,84.2,72.0,30.00,South,180,5.1,-999.0,67,-99.99,,,0.00,Acu-Link.com,2013-06-24 14:37:00,
2013-06-24 11:08:00,86.0,71.9,30.01,SSE,157,4.0,-999.0,63,-99.99,,,0.00,Acu-Link.com,2013-06-24 15:08:00,
2013-06-24 11:23:00,86.0,71.4,30.01,South,180,4.7,-999.0,62,-99.99,,,0.00,Acu-Link.com,2013-06-24 15:23:00,
2013-06-24 11:38:00,87.8,72.6,30.00,West,270,2.0,-999.0,61,-99.99,,,0.00,Acu-Link.com,2013-06-24 15:38:00,
2013-06-24 12:09:00,86.0,71.9,30.00,South,180,4.0,-999.0,63,-99.99,,,0.00,Acu-Link.com,2013-06-24 16:09:00,
2013-06-24 12:24:00,87.8,72.2,29.99,SSE,157,3.1,-999.0,60,-99.99,,,0.00,Acu-Link.com,2013-06-24 16:24:00,
2013-06-24 12:39:00,87.8,70.6,29.99,South,180,5.1,-999.0,57,-99.99,,,0.00,Acu-Link.com,2013-06-24 16:39:00,
2013-06-24 13:10:00,91.4,71.8,29.98,South,180,4.7,-999.0,53,-99.99,,,0.00,Acu-Link.com,2013-06-24 17:10:00,
2013-06-24 13:25:00,89.6,72.3,29.96,East,90,1.1,-999.0,57,-99.99,,,0.00,Acu-Link.com,2013-06-24 17:25:00,
2013-06-24 13:55:00,89.6,70.7,29.95,ESE,112,3.1,-999.0,54,-99.99,,,0.00,Acu-Link.com,2013-06-24 17:55:00,
2013-06-24 14:10:00,95.0,74.6,29.94,South,180,2.0,-999.0,52,-99.99,,,0.00,Acu-Link.com,2013-06-24 18:10:00,
2013-06-24 14:26:00,89.6,71.3,29.93,South,180,4.7,-999.0,55,-99.99,,,0.00,Acu-Link.com,2013-06-24 18:26:00,
2013-06-24 14:56:00,91.4,72.4,29.92,ESE,112,2.7,-999.0,54,-99.99,,,0.00,Acu-Link.com,2013-06-24 18:56:00,
2013-06-24 15:27:00,95.0,73.4,29.91,SE,135,2.7,-999.0,50,-99.99,,,0.00,Acu-Link.com,2013-06-24 19:27:00,
2013-06-24 15:42:00,96.8,74.4,29.91,South,180,5.1,-999.0,49,-99.99,,,0.00,Acu-Link.com,2013-06-24 19:42:00,
2013-06-24 15:57:00,91.4,72.4,29.91,ESE,112,4.0,-999.0,54,-99.99,,,0.00,Acu-Link.com,2013-06-24 19:57:00,
2013-06-24 16:12:00,91.4,72.4,29.90,SSE,157,4.0,-999.0,54,-99.99,,,0.00,Acu-Link.com,2013-06-24 20:12:00,
2013-06-24 16:28:00,91.4,72.9,29.89,South,180,3.6,-999.0,55,-99.99,,,0.00,Acu-Link.com,2013-06-24 20:28:00,
2013-06-24 16:43:00,89.6,72.3,29.89,NNE,22,2.0,-999.0,57,-99.99,,,0.00,Acu-Link.com,2013-06-24 20:43:00,
2013-06-24 16:58:00,86.0,71.0,29.91,South,180,3.6,-999.0,61,-99.99,,,0.00,Acu-Link.com,2013-06-24 20:58:00,
2013-06-24 17:13:00,84.2,70.2,29.90,West,270,1.6,-999.0,63,-99.99,,,0.00,Acu-Link.com,2013-06-24 21:13:00,
2013-06-24 17:28:00,82.4,69.4,29.91,SSW,202,2.0,-999.0,65,-99.99,,,0.00,Acu-Link.com,2013-06-24 21:28:00,
2013-06-24 17:43:00,82.4,71.2,29.92,SE,135,2.7,-999.0,69,-99.99,,,0.00,Acu-Link.com,2013-06-24 21:43:00,
2013-06-24 17:59:00,82.4,70.8,29.93,ENE,67,1.1,-999.0,68,-99.99,,,0.00,Acu-Link.com,2013-06-24 21:59:00,
2013-06-24 18:29:00,80.6,70.7,29.91,NW,315,2.0,-999.0,72,-99.99,,,0.00,Acu-Link.com,2013-06-24 22:29:00,
2013-06-24 18:44:00,78.8,71.0,29.91,WSW,247,0.0,-999.0,77,-99.99,,,0.00,Acu-Link.com,2013-06-24 22:44:00,
2013-06-24 19:15:00,77.0,71.1,29.89,NNW,337,0.0,-999.0,82,-99.99,,,0.00,Acu-Link.com,2013-06-24 23:15:00,
2013-06-24 19:30:00,77.0,71.1,29.90,NW,315,1.6,-999.0,82,-99.99,,,0.00,Acu-Link.com,2013-06-24 23:30:00,
2013-06-24 19:45:00,77.0,71.1,29.90,WNW,292,0.0,-999.0,82,-99.99,,,0.00,Acu-Link.com,2013-06-24 23:45:00,
2013-06-24 20:01:00,75.2,69.7,29.91,North,0,0.0,-999.0,83,-99.99,,,0.00,Acu-Link.com,2013-06-25 00:01:00,
2013-06-24 20:16:00,75.2,69.3,29.92,NE,45,2.7,-999.0,82,-99.99,,,0.00,Acu-Link.com,2013-06-25 00:16:00,
2013-06-24 20:31:00,75.2,68.2,29.92,WSW,247,3.1,-999.0,79,-99.99,,,0.00,Acu-Link.com,2013-06-25 00:31:00,
2013-06-24 21:01:00,75.2,68.2,29.92,ESE,112,2.7,-999.0,79,-99.99,,,0.00,Acu-Link.com,2013-06-25 01:01:00,
2013-06-24 21:16:00,75.2,68.6,29.92,NNW,337,1.1,-999.0,80,-99.99,,,0.00,Acu-Link.com,2013-06-25 01:16:00,
2013-06-24 21:47:00,73.4,67.9,29.92,NW,315,2.0,-999.0,83,-99.99,,,0.00,Acu-Link.com,2013-06-25 01:47:00,
2013-06-24 22:02:00,73.4,68.3,29.92,NNW,337,1.1,-999.0,84,-99.99,,,0.00,Acu-Link.com,2013-06-25 02:02:00,
2013-06-24 22:17:00,73.4,68.9,29.92,NNE,22,2.0,-999.0,86,-99.99,,,0.00,Acu-Link.com,2013-06-25 02:17:00,
2013-06-24 22:32:00,73.4,69.3,29.93,ENE,67,2.0,-999.0,87,-99.99,,,0.00,Acu-Link.com,2013-06-25 02:32:00,
2013-06-24 22:47:00,75.2,70.7,29.93,ENE,67,2.0,-999.0,86,-99.99,,,0.00,Acu-Link.com,2013-06-25 02:47:00,
2013-06-24 23:03:00,75.2,70.7,29.93,NE,45,1.6,-999.0,86,-99.99,,,0.00,Acu-Link.com,2013-06-25 03:03:00,
2013-06-24 23:49:00,75.2,70.4,29.93,WNW,292,1.6,-999.0,85,-99.99,,,0.00,Acu-Link.com,2013-06-25 03:49:00,